Columbia — WYR2092 — position and weather

sailwx.info

Track history (hours):
 
Tides and Currents Weather Stations Pressure Air Temp Water Temp Dewpoint Dewpoint Depression Visibility Wind Speed Wind Dir Waves Ship Positions

Columbia

Owner: ALASKA, STATE OF, ANCHORAGE, AK. More information available from US FCC via Universal Licensing System and Coast Guard Vessel Documentation Center.

Last reported at 2016-Sep-25 17:33 UTC. Time now 2016-Sep-25 20:56 UTC.
Position N 48°31' W 122°42'.

Type: Ship. MMSI: 367144000.

Date/timePositionNaut miles runAvg speedWind from/ knotsBaromVisibWave heightAir tempDewpointWater temp
2016-Sep-25 17:33N 48°31' W 122°42'1212.3
2016-Sep-25 16:33N 48°42' W 122°33'2 0.9
2016-Sep-25 14:20N 48°43' W 122°31'0 0.0
2016-Sep-25 12:12N 48°43' W 122°31'4 5.8
2016-Sep-25 11:33N 48°40' W 122°34'9 9.1
2016-Sep-25 10:33N 48°44' W 122°46'1313.1
2016-Sep-25 09:34N 48°51' W 123°02'2814.0
2016-Sep-25 07:33N 49°11' W 123°33'3812.8
2016-Sep-25 04:34N 49°29' W 124°25'5213.1
2016-Sep-25 00:33N 50°08' W 125°21'47 9.2
2016-Sep-24 19:27N 50°30' W 126°25'13 9.6
2016-Sep-24 18:06N 50°36' W 126°43'710.5
2016-Sep-24 17:28N 50°40' W 126°51'1111.4
2016-Sep-24 16:33N 50°47' W 127°04'2411.9
2016-Sep-24 14:34N 50°60' W 127°35'2211.1
2016-Sep-24 12:33N 51°20' W 127°51'  
2016-Sep-22 01:00N 57°30' W 134°42'103 2.3 160 / 191012.8 5.4 0.511.1
2016-Sep-20 05:00N 56°24' W 132°18'272 7.8 999 / 31020.0
2016-Sep-18 18:00N 52°30' W 128°18'8411.3 180 / 221009.0 2.2 0.515.6
2016-Sep-18 10:33N 51°08' W 127°48'1313.3
2016-Sep-18 09:34N 50°59' W 127°33'3011.6
2016-Sep-18 07:00N 50°42' W 126°54'7012.4 080 / 21010.6 5.4 11.1
2016-Sep-18 01:19N 50°07' W 125°19'912.3
2016-Sep-18 00:33N 49°59' W 125°11'3014.9
2016-Sep-17 22:33N 49°40' W 124°35'1615.5
2016-Sep-17 21:33N 49°32' W 124°15'1616.6
2016-Sep-17 20:33N 49°22' W 123°54'2116.2
2016-Sep-17 19:16N 49°09' W 123°30'46 3.1
2016-Sep-17 04:32N 48°43' W 122°31'24 6.7
2016-Sep-17 01:00N 48°48' W 123°06'2454.3 280 / 61011.0 5.4 15.0
2016-Sep-17 00:34N 49°06' W 123°29'9713.8
2016-Sep-16 17:32N 50°09' W 125°22'8811.0
2016-Sep-16 09:33N 50°54' W 127°21'2713.6
2016-Sep-16 07:34N 51°13' W 127°52'  
Track history (hours):
 
Tides and Currents Weather Stations Pressure Air Temp Water Temp Dewpoint Dewpoint Depression Visibility Wind Speed Wind Dir Waves Ship Positions

Columbia

Owner: ALASKA, STATE OF, ANCHORAGE, AK. More information available from US FCC via Universal Licensing System and Coast Guard Vessel Documentation Center.

Last reported at 2016-Sep-25 17:33 UTC. Time now 2016-Sep-25 20:56 UTC.
Position N 48°31' W 122°42'.

Type: Ship. MMSI: 367144000.

Date/timePositionNaut miles runAvg speedWind from/ knotsBaromVisibWave heightAir tempDewpointWater temp
2016-Sep-25 17:33N 48°31' W 122°42'1212.3
2016-Sep-25 16:33N 48°42' W 122°33'2 0.9
2016-Sep-25 14:20N 48°43' W 122°31'0 0.0
2016-Sep-25 12:12N 48°43' W 122°31'4 5.8
2016-Sep-25 11:33N 48°40' W 122°34'9 9.1
2016-Sep-25 10:33N 48°44' W 122°46'1313.1
2016-Sep-25 09:34N 48°51' W 123°02'2814.0
2016-Sep-25 07:33N 49°11' W 123°33'3812.8
2016-Sep-25 04:34N 49°29' W 124°25'5213.1
2016-Sep-25 00:33N 50°08' W 125°21'47 9.2
2016-Sep-24 19:27N 50°30' W 126°25'13 9.6
2016-Sep-24 18:06N 50°36' W 126°43'710.5
2016-Sep-24 17:28N 50°40' W 126°51'1111.4
2016-Sep-24 16:33N 50°47' W 127°04'2411.9
2016-Sep-24 14:34N 50°60' W 127°35'2211.1
2016-Sep-24 12:33N 51°20' W 127°51'  
2016-Sep-22 01:00N 57°30' W 134°42'103 2.3 160 / 191012.8 5.4 0.511.1
2016-Sep-20 05:00N 56°24' W 132°18'272 7.8 999 / 31020.0
2016-Sep-18 18:00N 52°30' W 128°18'8411.3 180 / 221009.0 2.2 0.515.6
2016-Sep-18 10:33N 51°08' W 127°48'1313.3
2016-Sep-18 09:34N 50°59' W 127°33'3011.6
2016-Sep-18 07:00N 50°42' W 126°54'7012.4 080 / 21010.6 5.4 11.1
2016-Sep-18 01:19N 50°07' W 125°19'912.3
2016-Sep-18 00:33N 49°59' W 125°11'3014.9
2016-Sep-17 22:33N 49°40' W 124°35'1615.5
2016-Sep-17 21:33N 49°32' W 124°15'1616.6
2016-Sep-17 20:33N 49°22' W 123°54'2116.2
2016-Sep-17 19:16N 49°09' W 123°30'46 3.1
2016-Sep-17 04:32N 48°43' W 122°31'24 6.7
2016-Sep-17 01:00N 48°48' W 123°06'2454.3 280 / 61011.0 5.4 15.0
2016-Sep-17 00:34N 49°06' W 123°29'9713.8
2016-Sep-16 17:32N 50°09' W 125°22'8811.0
2016-Sep-16 09:33N 50°54' W 127°21'2713.6
2016-Sep-16 07:34N 51°13' W 127°52'  

Dump ship's entire track history